Terminal Aerodrome Forecast
Issued by NWS Knoxville/Tri Cities, TN

Home | Current Version | Previous Version | Text Only | Print | Product List | Glossary On
Versions: 1 2 3 4 5 6 7 8 9 10 11 12 13 14 15
000
FTUS44 KMRX 262325
TAFTRI
TAF
KTRI 262325Z 2700/2724 03003KT P6SM FEW120 BKN250
     FM270300 00000KT P6SM BKN250
     FM270700 00000KT 4SM BR SCT250
     FM270900 00000KT 1SM BR BKN002
     FM271230 00000KT 3SM BR SCT004
     FM271300 00000KT P6SM SCT250
     FM271500 14004KT P6SM FEW060=

USA.gov is the U.S. government's official web portal to all federal, state and local government web resources and services.